Terminal Aerodrome Forecast
Issued by NWS

Home | Current Version | Previous Version | Text Only | Print | Product List | Glossary On
Versions: 1 2 3 4 5 6 7 8 9 10 11 12 13 14 15 16 17
000
FTUS46 KEKA 222127 AAA
TAFCEC
TAF AMD
KCEC 222127Z 2221/2318 29003KT 5SM BR OVC005
     FM230200 36005KT 2SM BR FEW004 OVC007
     FM230600 02002KT 4SM BR BKN007 OVC015
     FM231100 06004KT 2SM BR OVC007=

USA.gov is the U.S. government's official web portal to all federal, state and local government web resources and services.